sensor_id;sensor_type;location;lat;lon;timestamp;temperature;humidity
38241;DHT22;24037;49.536;8.500;2023-02-01T00:01:51;5.80;1.00
38241;DHT22;24037;49.536;8.500;2023-02-01T00:04:17;5.80;1.00
38241;DHT22;24037;49.536;8.500;2023-02-01T00:06:43;5.90;1.00
38241;DHT22;24037;49.536;8.500;2023-02-01T00:09:09;5.90;1.00
38241;DHT22;24037;49.536;8.500;2023-02-01T00:11:35;5.80;1.00
38241;DHT22;24037;49.536;8.500;2023-02-01T00:14:01;5.80;1.00
38241;DHT22;24037;49.536;8.500;2023-02-01T00:16:28;5.80;1.00
38241;DHT22;24037;49.536;8.500;2023-02-01T00:19:01;5.70;1.00
38241;DHT22;24037;49.536;8.500;2023-02-01T00:21:28;5.70;1.00
38241;DHT22;24037;49.536;8.500;2023-02-01T00:23:54;5.60;1.00
38241;DHT22;24037;49.536;8.500;2023-02-01T00:26:33;5.60;1.00
38241;DHT22;24037;49.536;8.500;2023-02-01T00:29:00;5.60;1.00
38241;DHT22;24037;49.536;8.500;2023-02-01T00:31:26;5.60;1.00
38241;DHT22;24037;49.536;8.500;2023-02-01T00:33:52;5.50;1.00
38241;DHT22;24037;49.536;8.500;2023-02-01T00:36:18;5.50;1.00
38241;DHT22;24037;49.536;8.500;2023-02-01T00:38:44;5.60;1.00
38241;DHT22;24037;49.536;8.500;2023-02-01T00:41:12;5.50;1.00
38241;DHT22;24037;49.536;8.500;2023-02-01T00:43:38;5.50;1.00
38241;DHT22;24037;49.536;8.500;2023-02-01T00:46:04;5.60;1.00
38241;DHT22;24037;49.536;8.500;2023-02-01T00:48:30;5.50;1.00
38241;DHT22;24037;49.536;8.500;2023-02-01T00:51:00;5.50;1.00
38241;DHT22;24037;49.536;8.500;2023-02-01T00:53:26;5.50;1.00
38241;DHT22;24037;49.536;8.500;2023-02-01T00:55:52;5.50;1.00
38241;DHT22;24037;49.536;8.500;2023-02-01T00:58:18;5.50;1.00
38241;DHT22;24037;49.536;8.500;2023-02-01T01:00:44;5.50;1.00
38241;DHT22;24037;49.536;8.500;2023-02-01T01:03:10;5.60;1.00
38241;DHT22;24037;49.536;8.500;2023-02-01T01:05:48;5.60;1.00
38241;DHT22;24037;49.536;8.500;2023-02-01T01:08:14;5.60;1.00
38241;DHT22;24037;49.536;8.500;2023-02-01T01:10:40;5.60;1.00
38241;DHT22;24037;49.536;8.500;2023-02-01T01:13:06;5.70;1.00
38241;DHT22;24037;49.536;8.500;2023-02-01T01:15:39;5.70;1.00
38241;DHT22;24037;49.536;8.500;2023-02-01T01:18:05;5.70;1.00
38241;DHT22;24037;49.536;8.500;2023-02-01T01:20:33;5.70;1.00
38241;DHT22;24037;49.536;8.500;2023-02-01T01:23:00;5.70;1.00
38241;DHT22;24037;49.536;8.500;2023-02-01T01:25:26;5.60;1.00
38241;DHT22;24037;49.536;8.500;2023-02-01T01:27:52;5.60;1.00
38241;DHT22;24037;49.536;8.500;2023-02-01T01:30:18;5.70;1.00
38241;DHT22;24037;49.536;8.500;2023-02-01T01:32:44;5.70;1.00
38241;DHT22;24037;49.536;8.500;2023-02-01T01:35:10;5.70;1.00
38241;DHT22;24037;49.536;8.500;2023-02-01T01:37:36;5.70;1.00
38241;DHT22;24037;49.536;8.500;2023-02-01T01:40:03;5.70;1.00
38241;DHT22;24037;49.536;8.500;2023-02-01T01:42:30;5.70;1.00
38241;DHT22;24037;49.536;8.500;2023-02-01T01:47:26;5.70;1.00
38241;DHT22;24037;49.536;8.500;2023-02-01T01:49:55;5.70;1.00
38241;DHT22;24037;49.536;8.500;2023-02-01T01:52:21;5.70;1.00
38241;DHT22;24037;49.536;8.500;2023-02-01T01:54:48;5.70;1.00
38241;DHT22;24037;49.536;8.500;2023-02-01T01:57:16;5.80;1.00
38241;DHT22;24037;49.536;8.500;2023-02-01T01:59:46;5.80;1.00
38241;DHT22;24037;49.536;8.500;2023-02-01T02:02:14;5.70;1.00
38241;DHT22;24037;49.536;8.500;2023-02-01T02:04:40;5.70;1.00
38241;DHT22;24037;49.536;8.500;2023-02-01T02:07:10;5.70;1.00
38241;DHT22;24037;49.536;8.500;2023-02-01T02:09:37;5.70;1.00
38241;DHT22;24037;49.536;8.500;2023-02-01T02:12:03;5.70;1.00
38241;DHT22;24037;49.536;8.500;2023-02-01T02:14:29;5.70;1.00
38241;DHT22;24037;49.536;8.500;2023-02-01T02:24:42;5.60;1.00
38241;DHT22;24037;49.536;8.500;2023-02-01T02:27:19;5.60;1.00
38241;DHT22;24037;49.536;8.500;2023-02-01T02:34:50;5.60;1.00
38241;DHT22;24037;49.536;8.500;2023-02-01T02:37:22;5.60;1.00
38241;DHT22;24037;49.536;8.500;2023-02-01T02:48:17;5.50;1.00
38241;DHT22;24037;49.536;8.500;2023-02-01T02:53:56;5.40;1.00
38241;DHT22;24037;49.536;8.500;2023-02-01T02:56:42;5.50;1.00
38241;DHT22;24037;49.536;8.500;2023-02-01T02:59:27;5.50;1.00
38241;DHT22;24037;49.536;8.500;2023-02-01T03:02:12;5.50;1.00
38241;DHT22;24037;49.536;8.500;2023-02-01T03:04:57;5.60;1.00
38241;DHT22;24037;49.536;8.500;2023-02-01T03:10:11;5.60;1.00
38241;DHT22;24037;49.536;8.500;2023-02-01T03:12:42;5.60;1.00
38241;DHT22;24037;49.536;8.500;2023-02-01T03:16:04;5.60;1.00
38241;DHT22;24037;49.536;8.500;2023-02-01T03:18:12;5.60;1.00
38241;DHT22;24037;49.536;8.500;2023-02-01T03:20:40;5.60;1.00
38241;DHT22;24037;49.536;8.500;2023-02-01T03:23:07;5.70;1.00
38241;DHT22;24037;49.536;8.500;2023-02-01T03:25:35;5.70;1.00
38241;DHT22;24037;49.536;8.500;2023-02-01T03:28:03;5.60;1.00
38241;DHT22;24037;49.536;8.500;2023-02-01T03:30:31;5.70;1.00
38241;DHT22;24037;49.536;8.500;2023-02-01T03:33:00;5.60;1.00
38241;DHT22;24037;49.536;8.500;2023-02-01T03:40:50;5.70;1.00
38241;DHT22;24037;49.536;8.500;2023-02-01T03:43:17;5.70;1.00
38241;DHT22;24037;49.536;8.500;2023-02-01T03:45:46;5.60;1.00
38241;DHT22;24037;49.536;8.500;2023-02-01T03:48:14;5.60;1.00
38241;DHT22;24037;49.536;8.500;2023-02-01T03:50:43;5.60;1.00
38241;DHT22;24037;49.536;8.500;2023-02-01T03:53:12;5.60;1.00
38241;DHT22;24037;49.536;8.500;2023-02-01T03:55:42;5.70;1.00
38241;DHT22;24037;49.536;8.500;2023-02-01T03:58:16;5.60;1.00
38241;DHT22;24037;49.536;8.500;2023-02-01T04:00:46;5.70;1.00
38241;DHT22;24037;49.536;8.500;2023-02-01T04:03:15;5.70;1.00
38241;DHT22;24037;49.536;8.500;2023-02-01T04:05:41;5.70;1.00
38241;DHT22;24037;49.536;8.500;2023-02-01T04:08:08;5.70;1.00
38241;DHT22;24037;49.536;8.500;2023-02-01T04:10:34;5.80;1.00
38241;DHT22;24037;49.536;8.500;2023-02-01T04:13:00;5.80;1.00
38241;DHT22;24037;49.536;8.500;2023-02-01T04:15:26;5.80;1.00
38241;DHT22;24037;49.536;8.500;2023-02-01T04:17:52;5.80;1.00
38241;DHT22;24037;49.536;8.500;2023-02-01T04:20:18;5.80;1.00
38241;DHT22;24037;49.536;8.500;2023-02-01T04:22:45;5.80;1.00
38241;DHT22;24037;49.536;8.500;2023-02-01T04:25:11;5.80;1.00
38241;DHT22;24037;49.536;8.500;2023-02-01T04:27:37;5.70;1.00
38241;DHT22;24037;49.536;8.500;2023-02-01T04:30:03;5.80;1.00
38241;DHT22;24037;49.536;8.500;2023-02-01T04:32:29;5.80;1.00
38241;DHT22;24037;49.536;8.500;2023-02-01T04:34:55;5.80;1.00
38241;DHT22;24037;49.536;8.500;2023-02-01T04:37:21;5.80;1.00
38241;DHT22;24037;49.536;8.500;2023-02-01T04:39:47;5.70;1.00
38241;DHT22;24037;49.536;8.500;2023-02-01T04:42:13;5.80;1.00
38241;DHT22;24037;49.536;8.500;2023-02-01T04:44:39;5.80;1.00
38241;DHT22;24037;49.536;8.500;2023-02-01T04:47:07;5.80;1.00
38241;DHT22;24037;49.536;8.500;2023-02-01T04:49:33;5.80;1.00
38241;DHT22;24037;49.536;8.500;2023-02-01T04:51:59;5.80;1.00
38241;DHT22;24037;49.536;8.500;2023-02-01T04:54:25;5.90;1.00
38241;DHT22;24037;49.536;8.500;2023-02-01T04:56:51;5.90;1.00
38241;DHT22;24037;49.536;8.500;2023-02-01T04:59:17;5.90;1.00
38241;DHT22;24037;49.536;8.500;2023-02-01T05:01:43;5.90;1.00
38241;DHT22;24037;49.536;8.500;2023-02-01T05:04:09;5.90;1.00
38241;DHT22;24037;49.536;8.500;2023-02-01T05:06:35;5.90;1.00
38241;DHT22;24037;49.536;8.500;2023-02-01T05:09:01;5.90;1.00
38241;DHT22;24037;49.536;8.500;2023-02-01T05:11:27;5.80;1.00
38241;DHT22;24037;49.536;8.500;2023-02-01T05:14:12;5.90;1.00
38241;DHT22;24037;49.536;8.500;2023-02-01T05:16:38;5.80;1.00
38241;DHT22;24037;49.536;8.500;2023-02-01T05:19:04;5.80;1.00
38241;DHT22;24037;49.536;8.500;2023-02-01T05:21:29;5.80;1.00
38241;DHT22;24037;49.536;8.500;2023-02-01T05:23:55;5.80;1.00
38241;DHT22;24037;49.536;8.500;2023-02-01T05:26:39;5.90;1.00
38241;DHT22;24037;49.536;8.500;2023-02-01T05:29:07;5.90;1.00
38241;DHT22;24037;49.536;8.500;2023-02-01T05:31:33;5.80;1.00
38241;DHT22;24037;49.536;8.500;2023-02-01T05:33:59;5.60;1.00
38241;DHT22;24037;49.536;8.500;2023-02-01T05:36:25;5.50;5.00
38241;DHT22;24037;49.536;8.500;2023-02-01T05:38:51;5.40;14.00
38241;DHT22;24037;49.536;8.500;2023-02-01T05:41:17;5.30;24.00
38241;DHT22;24037;49.536;8.500;2023-02-01T05:43:43;5.20;33.60
38241;DHT22;24037;49.536;8.500;2023-02-01T05:46:09;5.20;36.60
38241;DHT22;24037;49.536;8.500;2023-02-01T05:48:39;5.20;42.30
38241;DHT22;24037;49.536;8.500;2023-02-01T05:51:05;5.10;52.80
38241;DHT22;24037;49.536;8.500;2023-02-01T05:53:31;5.10;71.60
38241;DHT22;24037;49.536;8.500;2023-02-01T05:55:57;5.10;87.50
38241;DHT22;24037;49.536;8.500;2023-02-01T05:58:23;5.10;94.70
38241;DHT22;24037;49.536;8.500;2023-02-01T06:00:49;5.10;99.60
38241;DHT22;24037;49.536;8.500;2023-02-01T06:03:15;5.00;99.90
38241;DHT22;24037;49.536;8.500;2023-02-01T06:05:43;5.00;99.90
38241;DHT22;24037;49.536;8.500;2023-02-01T06:08:09;5.00;99.90
38241;DHT22;24037;49.536;8.500;2023-02-01T06:10:35;5.00;99.90
38241;DHT22;24037;49.536;8.500;2023-02-01T06:13:01;5.00;99.90
38241;DHT22;24037;49.536;8.500;2023-02-01T06:15:28;5.10;99.90
38241;DHT22;24037;49.536;8.500;2023-02-01T06:17:54;5.10;99.90
38241;DHT22;24037;49.536;8.500;2023-02-01T06:20:20;5.00;99.90
38241;DHT22;24037;49.536;8.500;2023-02-01T06:22:46;5.10;99.90
38241;DHT22;24037;49.536;8.500;2023-02-01T06:25:12;5.00;99.90
38241;DHT22;24037;49.536;8.500;2023-02-01T06:27:38;5.00;99.90
38241;DHT22;24037;49.536;8.500;2023-02-01T06:30:05;5.00;99.90
38241;DHT22;24037;49.536;8.500;2023-02-01T06:32:32;5.00;99.90
38241;DHT22;24037;49.536;8.500;2023-02-01T06:34:58;5.00;99.90
38241;DHT22;24037;49.536;8.500;2023-02-01T06:37:25;5.00;99.90
38241;DHT22;24037;49.536;8.500;2023-02-01T06:39:53;5.00;99.90
38241;DHT22;24037;49.536;8.500;2023-02-01T06:42:19;5.00;99.40
38241;DHT22;24037;49.536;8.500;2023-02-01T06:44:45;5.10;97.00
38241;DHT22;24037;49.536;8.500;2023-02-01T06:47:11;5.10;91.40
38241;DHT22;24037;49.536;8.500;2023-02-01T06:49:37;5.10;86.20
38241;DHT22;24037;49.536;8.500;2023-02-01T06:52:03;5.00;87.20
38241;DHT22;24037;49.536;8.500;2023-02-01T06:54:29;5.10;77.20
38241;DHT22;24037;49.536;8.500;2023-02-01T06:56:57;5.10;66.30
38241;DHT22;24037;49.536;8.500;2023-02-01T06:59:23;5.20;58.10
38241;DHT22;24037;49.536;8.500;2023-02-01T07:01:49;5.20;47.20
38241;DHT22;24037;49.536;8.500;2023-02-01T07:04:15;5.30;39.20
38241;DHT22;24037;49.536;8.500;2023-02-01T07:06:43;5.30;33.80
38241;DHT22;24037;49.536;8.500;2023-02-01T07:09:08;5.30;26.20
38241;DHT22;24037;49.536;8.500;2023-02-01T07:11:34;5.30;13.90
38241;DHT22;24037;49.536;8.500;2023-02-01T07:14:00;5.40;4.90
38241;DHT22;24037;49.536;8.500;2023-02-01T07:16:26;5.40;1.00
38241;DHT22;24037;49.536;8.500;2023-02-01T07:18:52;5.40;1.00
38241;DHT22;24037;49.536;8.500;2023-02-01T07:21:19;5.40;1.00
38241;DHT22;24037;49.536;8.500;2023-02-01T07:23:45;5.40;1.00
38241;DHT22;24037;49.536;8.500;2023-02-01T07:26:12;5.30;1.00
38241;DHT22;24037;49.536;8.500;2023-02-01T07:28:39;5.30;1.00
38241;DHT22;24037;49.536;8.500;2023-02-01T07:31:05;5.40;1.00
38241;DHT22;24037;49.536;8.500;2023-02-01T07:33:31;5.30;1.00
38241;DHT22;24037;49.536;8.500;2023-02-01T07:35:57;5.20;1.00
38241;DHT22;24037;49.536;8.500;2023-02-01T07:38:26;5.20;1.00
38241;DHT22;24037;49.536;8.500;2023-02-01T07:40:56;5.20;1.00
38241;DHT22;24037;49.536;8.500;2023-02-01T07:43:22;5.10;1.00
38241;DHT22;24037;49.536;8.500;2023-02-01T07:45:50;5.20;1.00
38241;DHT22;24037;49.536;8.500;2023-02-01T07:48:16;5.10;1.00
38241;DHT22;24037;49.536;8.500;2023-02-01T07:50:42;5.10;1.00
38241;DHT22;24037;49.536;8.500;2023-02-01T07:53:08;5.10;1.00
38241;DHT22;24037;49.536;8.500;2023-02-01T07:55:36;5.10;1.00
38241;DHT22;24037;49.536;8.500;2023-02-01T07:58:02;5.20;1.00
38241;DHT22;24037;49.536;8.500;2023-02-01T08:00:28;5.30;1.00
38241;DHT22;24037;49.536;8.500;2023-02-01T08:03:13;5.30;1.00
38241;DHT22;24037;49.536;8.500;2023-02-01T08:05:39;5.40;1.00
38241;DHT22;24037;49.536;8.500;2023-02-01T08:08:05;5.50;1.00
38241;DHT22;24037;49.536;8.500;2023-02-01T08:10:31;5.50;1.00
38241;DHT22;24037;49.536;8.500;2023-02-01T08:12:58;5.50;1.00
38241;DHT22;24037;49.536;8.500;2023-02-01T08:15:24;5.60;1.00
38241;DHT22;24037;49.536;8.500;2023-02-01T08:17:50;5.60;1.00
38241;DHT22;24037;49.536;8.500;2023-02-01T08:20:17;5.70;1.00
38241;DHT22;24037;49.536;8.500;2023-02-01T08:22:43;5.70;1.00
38241;DHT22;24037;49.536;8.500;2023-02-01T08:25:09;5.70;1.00
38241;DHT22;24037;49.536;8.500;2023-02-01T08:27:36;5.70;1.00
38241;DHT22;24037;49.536;8.500;2023-02-01T08:30:02;5.70;1.00
38241;DHT22;24037;49.536;8.500;2023-02-01T08:32:28;5.80;1.00
38241;DHT22;24037;49.536;8.500;2023-02-01T08:34:54;5.90;1.00
38241;DHT22;24037;49.536;8.500;2023-02-01T08:37:20;5.90;1.00
38241;DHT22;24037;49.536;8.500;2023-02-01T08:39:48;6.00;1.00
38241;DHT22;24037;49.536;8.500;2023-02-01T08:42:16;6.00;1.00
38241;DHT22;24037;49.536;8.500;2023-02-01T08:45:01;6.10;1.00
38241;DHT22;24037;49.536;8.500;2023-02-01T08:47:28;6.10;1.00
38241;DHT22;24037;49.536;8.500;2023-02-01T08:49:54;6.10;1.00
38241;DHT22;24037;49.536;8.500;2023-02-01T08:52:20;6.20;1.00
38241;DHT22;24037;49.536;8.500;2023-02-01T08:54:46;6.20;1.00
38241;DHT22;24037;49.536;8.500;2023-02-01T08:57:12;6.20;1.00
38241;DHT22;24037;49.536;8.500;2023-02-01T08:59:38;6.30;1.00
38241;DHT22;24037;49.536;8.500;2023-02-01T09:02:05;6.30;1.00
38241;DHT22;24037;49.536;8.500;2023-02-01T09:04:31;6.30;1.00
38241;DHT22;24037;49.536;8.500;2023-02-01T09:06:57;6.30;1.00
38241;DHT22;24037;49.536;8.500;2023-02-01T09:09:23;6.40;1.00
38241;DHT22;24037;49.536;8.500;2023-02-01T09:11:49;6.50;1.00
38241;DHT22;24037;49.536;8.500;2023-02-01T09:14:16;6.60;1.00
38241;DHT22;24037;49.536;8.500;2023-02-01T09:16:42;6.70;1.00
38241;DHT22;24037;49.536;8.500;2023-02-01T09:19:08;6.70;1.00
38241;DHT22;24037;49.536;8.500;2023-02-01T09:21:34;6.80;1.00
38241;DHT22;24037;49.536;8.500;2023-02-01T09:24:00;6.70;1.00
38241;DHT22;24037;49.536;8.500;2023-02-01T09:26:26;6.70;1.00
38241;DHT22;24037;49.536;8.500;2023-02-01T09:28:53;6.60;1.00
38241;DHT22;24037;49.536;8.500;2023-02-01T09:31:19;6.60;1.00
38241;DHT22;24037;49.536;8.500;2023-02-01T09:33:45;6.70;1.00
38241;DHT22;24037;49.536;8.500;2023-02-01T09:36:11;6.70;1.00
38241;DHT22;24037;49.536;8.500;2023-02-01T09:38:37;6.80;1.00
38241;DHT22;24037;49.536;8.500;2023-02-01T09:41:07;6.90;99.90
38241;DHT22;24037;49.536;8.500;2023-02-01T09:43:36;6.90;99.90
38241;DHT22;24037;49.536;8.500;2023-02-01T09:46:12;6.90;99.90
38241;DHT22;24037;49.536;8.500;2023-02-01T09:48:40;6.90;99.90
38241;DHT22;24037;49.536;8.500;2023-02-01T09:51:12;6.90;99.90
38241;DHT22;24037;49.536;8.500;2023-02-01T09:53:40;7.00;99.90
38241;DHT22;24037;49.536;8.500;2023-02-01T09:56:14;6.90;99.90
38241;DHT22;24037;49.536;8.500;2023-02-01T09:59:01;6.90;99.90
38241;DHT22;24037;49.536;8.500;2023-02-01T10:01:30;6.90;99.90
38241;DHT22;24037;49.536;8.500;2023-02-01T10:04:04;6.90;99.90
38241;DHT22;24037;49.536;8.500;2023-02-01T10:12:11;7.10;99.90
38241;DHT22;24037;49.536;8.500;2023-02-01T10:17:03;7.00;99.90
38241;DHT22;24037;49.536;8.500;2023-02-01T10:19:50;7.10;99.90
38241;DHT22;24037;49.536;8.500;2023-02-01T10:22:25;7.10;99.90
38241;DHT22;24037;49.536;8.500;2023-02-01T10:24:53;7.10;99.90
38241;DHT22;24037;49.536;8.500;2023-02-01T10:27:27;7.10;99.90
38241;DHT22;24037;49.536;8.500;2023-02-01T10:29:55;7.10;99.90
38241;DHT22;24037;49.536;8.500;2023-02-01T10:32:32;7.10;99.90
38241;DHT22;24037;49.536;8.500;2023-02-01T10:35:08;7.20;99.90
38241;DHT22;24037;49.536;8.500;2023-02-01T10:37:38;7.10;99.90
38241;DHT22;24037;49.536;8.500;2023-02-01T10:40:15;7.20;99.90
38241;DHT22;24037;49.536;8.500;2023-02-01T10:42:41;7.10;99.90
38241;DHT22;24037;49.536;8.500;2023-02-01T10:45:19;7.10;99.90
38241;DHT22;24037;49.536;8.500;2023-02-01T10:47:46;7.20;99.90
38241;DHT22;24037;49.536;8.500;2023-02-01T10:50:26;7.20;99.90
38241;DHT22;24037;49.536;8.500;2023-02-01T10:53:38;7.20;99.90
38241;DHT22;24037;49.536;8.500;2023-02-01T10:58:17;7.20;99.90
38241;DHT22;24037;49.536;8.500;2023-02-01T11:00:45;7.20;99.90
38241;DHT22;24037;49.536;8.500;2023-02-01T11:03:22;7.20;99.90
38241;DHT22;24037;49.536;8.500;2023-02-01T11:05:53;7.20;99.90
38241;DHT22;24037;49.536;8.500;2023-02-01T11:08:21;7.20;99.90
38241;DHT22;24037;49.536;8.500;2023-02-01T11:10:47;7.20;99.90
38241;DHT22;24037;49.536;8.500;2023-02-01T11:13:21;7.20;99.90
38241;DHT22;24037;49.536;8.500;2023-02-01T11:15:54;7.10;99.90
38241;DHT22;24037;49.536;8.500;2023-02-01T11:18:25;7.20;99.90
38241;DHT22;24037;49.536;8.500;2023-02-01T11:20:52;7.20;99.90
38241;DHT22;24037;49.536;8.500;2023-02-01T11:23:19;7.20;99.90
38241;DHT22;24037;49.536;8.500;2023-02-01T11:28:15;7.30;99.90
38241;DHT22;24037;49.536;8.500;2023-02-01T11:30:42;7.30;99.90
38241;DHT22;24037;49.536;8.500;2023-02-01T11:33:12;7.20;99.90
38241;DHT22;24037;49.536;8.500;2023-02-01T11:35:39;7.20;99.90
38241;DHT22;24037;49.536;8.500;2023-02-01T11:38:11;7.30;99.90
38241;DHT22;24037;49.536;8.500;2023-02-01T11:40:38;7.20;99.90
38241;DHT22;24037;49.536;8.500;2023-02-01T11:43:08;7.20;99.90
38241;DHT22;24037;49.536;8.500;2023-02-01T11:45:35;7.20;99.90
38241;DHT22;24037;49.536;8.500;2023-02-01T11:48:07;7.30;99.90
38241;DHT22;24037;49.536;8.500;2023-02-01T11:55:50;7.40;99.90
38241;DHT22;24037;49.536;8.500;2023-02-01T12:24:34;7.10;99.90
38241;DHT22;24037;49.536;8.500;2023-02-01T12:32:09;7.10;99.90
38241;DHT22;24037;49.536;8.500;2023-02-01T12:42:07;7.10;99.90
38241;DHT22;24037;49.536;8.500;2023-02-01T12:44:40;7.10;99.90
38241;DHT22;24037;49.536;8.500;2023-02-01T12:52:13;7.10;99.90
38241;DHT22;24037;49.536;8.500;2023-02-01T12:54:49;7.10;99.90
38241;DHT22;24037;49.536;8.500;2023-02-01T12:57:17;7.10;99.90
38241;DHT22;24037;49.536;8.500;2023-02-01T12:59:47;7.20;99.90
38241;DHT22;24037;49.536;8.500;2023-02-01T13:02:22;7.10;99.90
38241;DHT22;24037;49.536;8.500;2023-02-01T13:04:59;7.10;99.90
38241;DHT22;24037;49.536;8.500;2023-02-01T13:07:30;7.10;99.90
38241;DHT22;24037;49.536;8.500;2023-02-01T13:10:03;7.10;99.90
38241;DHT22;24037;49.536;8.500;2023-02-01T13:12:33;7.10;99.90
38241;DHT22;24037;49.536;8.500;2023-02-01T13:15:03;7.10;99.90
38241;DHT22;24037;49.536;8.500;2023-02-01T13:17:31;7.20;99.90
38241;DHT22;24037;49.536;8.500;2023-02-01T13:24:58;7.10;99.90
38241;DHT22;24037;49.536;8.500;2023-02-01T13:27:28;7.10;99.90
38241;DHT22;24037;49.536;8.500;2023-02-01T13:29:58;7.10;99.90
38241;DHT22;24037;49.536;8.500;2023-02-01T13:42:27;7.40;99.90
38241;DHT22;24037;49.536;8.500;2023-02-01T13:45:05;7.40;99.90
38241;DHT22;24037;49.536;8.500;2023-02-01T13:47:39;7.40;99.90
38241;DHT22;24037;49.536;8.500;2023-02-01T13:52:55;7.40;99.90
38241;DHT22;24037;49.536;8.500;2023-02-01T13:57:49;7.40;99.90
38241;DHT22;24037;49.536;8.500;2023-02-01T14:08:12;7.50;99.90
38241;DHT22;24037;49.536;8.500;2023-02-01T14:23:48;7.50;99.90
38241;DHT22;24037;49.536;8.500;2023-02-01T14:26:28;7.50;99.90
38241;DHT22;24037;49.536;8.500;2023-02-01T14:31:54;7.50;99.90
38241;DHT22;24037;49.536;8.500;2023-02-01T14:37:10;7.60;99.90
38241;DHT22;24037;49.536;8.500;2023-02-01T14:44:44;7.60;99.90
38241;DHT22;24037;49.536;8.500;2023-02-01T14:49:47;7.50;99.90
38241;DHT22;24037;49.536;8.500;2023-02-01T14:52:17;7.50;99.90
38241;DHT22;24037;49.536;8.500;2023-02-01T14:54:44;7.40;99.90
38241;DHT22;24037;49.536;8.500;2023-02-01T14:57:15;7.50;99.90
38241;DHT22;24037;49.536;8.500;2023-02-01T14:59:43;7.50;99.90
38241;DHT22;24037;49.536;8.500;2023-02-01T15:02:17;7.50;99.90
38241;DHT22;24037;49.536;8.500;2023-02-01T15:04:44;7.50;99.90
38241;DHT22;24037;49.536;8.500;2023-02-01T15:07:11;7.50;99.90
38241;DHT22;24037;49.536;8.500;2023-02-01T15:09:38;7.50;99.90
38241;DHT22;24037;49.536;8.500;2023-02-01T15:14:40;7.60;99.90
38241;DHT22;24037;49.536;8.500;2023-02-01T15:20:11;7.70;99.90
38241;DHT22;24037;49.536;8.500;2023-02-01T15:22:37;7.80;99.90
38241;DHT22;24037;49.536;8.500;2023-02-01T15:25:03;7.90;99.90
38241;DHT22;24037;49.536;8.500;2023-02-01T15:27:30;8.00;99.90
38241;DHT22;24037;49.536;8.500;2023-02-01T15:30:07;8.10;99.90
38241;DHT22;24037;49.536;8.500;2023-02-01T15:32:34;8.10;99.90
38241;DHT22;24037;49.536;8.500;2023-02-01T15:35:00;8.10;99.90
38241;DHT22;24037;49.536;8.500;2023-02-01T15:37:27;8.10;99.90
38241;DHT22;24037;49.536;8.500;2023-02-01T15:40:03;8.00;99.90
38241;DHT22;24037;49.536;8.500;2023-02-01T15:42:29;8.00;99.90
38241;DHT22;24037;49.536;8.500;2023-02-01T15:44:55;8.00;99.90
38241;DHT22;24037;49.536;8.500;2023-02-01T15:47:25;7.90;99.90
38241;DHT22;24037;49.536;8.500;2023-02-01T15:49:52;7.80;99.90
38241;DHT22;24037;49.536;8.500;2023-02-01T15:52:21;7.70;99.90
38241;DHT22;24037;49.536;8.500;2023-02-01T15:54:49;7.70;99.90
38241;DHT22;24037;49.536;8.500;2023-02-01T15:57:25;7.60;99.90
38241;DHT22;24037;49.536;8.500;2023-02-01T15:59:56;7.50;99.90
38241;DHT22;24037;49.536;8.500;2023-02-01T16:02:27;7.40;99.90
38241;DHT22;24037;49.536;8.500;2023-02-01T16:04:54;7.40;99.90
38241;DHT22;24037;49.536;8.500;2023-02-01T16:07:22;7.50;99.90
38241;DHT22;24037;49.536;8.500;2023-02-01T16:09:55;7.50;99.90
38241;DHT22;24037;49.536;8.500;2023-02-01T16:12:31;7.40;99.90
38241;DHT22;24037;49.536;8.500;2023-02-01T16:14:59;7.50;99.90
38241;DHT22;24037;49.536;8.500;2023-02-01T16:17:25;7.50;99.90
38241;DHT22;24037;49.536;8.500;2023-02-01T16:19:52;7.40;99.90
38241;DHT22;24037;49.536;8.500;2023-02-01T16:22:18;7.40;99.90
38241;DHT22;24037;49.536;8.500;2023-02-01T16:24:44;7.40;99.90
38241;DHT22;24037;49.536;8.500;2023-02-01T16:27:10;7.30;99.90
38241;DHT22;24037;49.536;8.500;2023-02-01T16:29:36;7.40;99.90
38241;DHT22;24037;49.536;8.500;2023-02-01T16:32:02;7.40;99.90
38241;DHT22;24037;49.536;8.500;2023-02-01T16:34:29;7.40;99.90
38241;DHT22;24037;49.536;8.500;2023-02-01T16:36:55;7.40;99.90
38241;DHT22;24037;49.536;8.500;2023-02-01T16:39:23;7.40;99.90
38241;DHT22;24037;49.536;8.500;2023-02-01T16:41:49;7.40;99.90
38241;DHT22;24037;49.536;8.500;2023-02-01T16:44:15;7.40;99.90
38241;DHT22;24037;49.536;8.500;2023-02-01T16:46:42;7.40;99.90
38241;DHT22;24037;49.536;8.500;2023-02-01T16:49:42;7.40;99.90
38241;DHT22;24037;49.536;8.500;2023-02-01T16:52:02;7.40;99.90
38241;DHT22;24037;49.536;8.500;2023-02-01T16:54:28;7.40;99.90
38241;DHT22;24037;49.536;8.500;2023-02-01T16:56:54;7.30;99.90
38241;DHT22;24037;49.536;8.500;2023-02-01T16:59:20;7.30;99.90
38241;DHT22;24037;49.536;8.500;2023-02-01T17:01:46;7.30;99.90
38241;DHT22;24037;49.536;8.500;2023-02-01T17:04:12;7.30;99.90
38241;DHT22;24037;49.536;8.500;2023-02-01T17:06:38;7.20;99.90
38241;DHT22;24037;49.536;8.500;2023-02-01T17:09:04;7.20;99.90
38241;DHT22;24037;49.536;8.500;2023-02-01T17:11:31;7.30;99.90
38241;DHT22;24037;49.536;8.500;2023-02-01T17:14:01;7.30;99.90
38241;DHT22;24037;49.536;8.500;2023-02-01T17:16:33;7.30;99.90
38241;DHT22;24037;49.536;8.500;2023-02-01T17:19:04;7.30;99.90
38241;DHT22;24037;49.536;8.500;2023-02-01T17:21:34;7.40;99.90
38241;DHT22;24037;49.536;8.500;2023-02-01T17:24:01;7.30;99.90
38241;DHT22;24037;49.536;8.500;2023-02-01T17:26:27;7.30;99.90
38241;DHT22;24037;49.536;8.500;2023-02-01T17:28:52;7.20;99.90
38241;DHT22;24037;49.536;8.500;2023-02-01T17:31:19;7.20;99.90
38241;DHT22;24037;49.536;8.500;2023-02-01T17:33:45;7.20;99.90
38241;DHT22;24037;49.536;8.500;2023-02-01T17:36:15;7.10;99.90
38241;DHT22;24037;49.536;8.500;2023-02-01T17:38:41;7.10;99.90
38241;DHT22;24037;49.536;8.500;2023-02-01T17:41:11;7.00;99.90
38241;DHT22;24037;49.536;8.500;2023-02-01T17:43:37;7.00;99.90
38241;DHT22;24037;49.536;8.500;2023-02-01T17:46:13;6.90;99.90
38241;DHT22;24037;49.536;8.500;2023-02-01T17:48:40;6.90;99.90
38241;DHT22;24037;49.536;8.500;2023-02-01T17:51:12;6.90;99.90
38241;DHT22;24037;49.536;8.500;2023-02-01T17:53:39;6.80;99.90
38241;DHT22;24037;49.536;8.500;2023-02-01T17:56:07;6.80;99.90
38241;DHT22;24037;49.536;8.500;2023-02-01T17:58:36;6.80;99.90
38241;DHT22;24037;49.536;8.500;2023-02-01T18:01:02;6.70;99.90
38241;DHT22;24037;49.536;8.500;2023-02-01T18:03:29;6.60;99.90
38241;DHT22;24037;49.536;8.500;2023-02-01T18:05:56;6.60;99.90
38241;DHT22;24037;49.536;8.500;2023-02-01T18:08:24;6.70;99.90
38241;DHT22;24037;49.536;8.500;2023-02-01T18:10:51;6.70;99.90
38241;DHT22;24037;49.536;8.500;2023-02-01T18:13:17;6.60;99.90
38241;DHT22;24037;49.536;8.500;2023-02-01T18:15:43;6.60;99.90
38241;DHT22;24037;49.536;8.500;2023-02-01T18:18:09;6.70;99.90
38241;DHT22;24037;49.536;8.500;2023-02-01T18:20:35;6.60;99.90
38241;DHT22;24037;49.536;8.500;2023-02-01T18:23:01;6.60;99.90
38241;DHT22;24037;49.536;8.500;2023-02-01T18:25:28;6.60;99.90
38241;DHT22;24037;49.536;8.500;2023-02-01T18:27:55;6.70;99.90
38241;DHT22;24037;49.536;8.500;2023-02-01T18:30:22;6.80;99.90
38241;DHT22;24037;49.536;8.500;2023-02-01T18:32:49;6.90;99.90
38241;DHT22;24037;49.536;8.500;2023-02-01T18:35:24;6.90;99.90
38241;DHT22;24037;49.536;8.500;2023-02-01T18:37:51;7.00;99.90